createdAt,value
2022-08-04T00:00:08.254Z,27.00
2022-08-04T00:02:38.640Z,27.00
2022-08-04T00:05:07.172Z,27.00
2022-08-04T00:07:45.136Z,26.90
2022-08-04T00:10:16.416Z,26.90
2022-08-04T00:12:51.843Z,26.80
2022-08-04T00:15:19.767Z,26.80
2022-08-04T00:17:54.342Z,26.80
2022-08-04T00:20:23.600Z,26.80
2022-08-04T00:22:52.890Z,26.80
2022-08-04T00:25:19.963Z,26.70
2022-08-04T00:27:47.464Z,26.70
2022-08-04T00:30:14.281Z,26.70
2022-08-04T00:32:42.335Z,26.60
2022-08-04T00:35:10.627Z,26.60
2022-08-04T00:37:40.946Z,26.60
2022-08-04T00:40:34.243Z,26.60
2022-08-04T00:43:09.428Z,26.50
2022-08-04T00:46:15.565Z,26.40
2022-08-04T00:48:44.045Z,26.50
2022-08-04T00:51:13.850Z,26.50
2022-08-04T00:54:16.123Z,26.40
2022-08-04T00:57:08.740Z,26.40
2022-08-04T01:00:03.652Z,26.40
2022-08-04T01:02:38.679Z,26.40
2022-08-04T01:05:37.496Z,26.30
2022-08-04T01:08:52.641Z,26.30
2022-08-04T01:11:31.379Z,26.20
2022-08-04T01:14:13.006Z,26.20
2022-08-04T01:16:50.768Z,26.20
2022-08-04T01:19:49.811Z,26.10
2022-08-04T01:22:16.542Z,26.10
2022-08-04T01:24:56.153Z,26.10
2022-08-04T01:27:41.769Z,26.10
2022-08-04T01:30:08.750Z,26.00
2022-08-04T01:32:46.889Z,26.00
2022-08-04T01:35:47.331Z,25.90
2022-08-04T01:38:25.005Z,25.90
2022-08-04T01:40:57.866Z,25.90
2022-08-04T01:43:27.500Z,25.80
2022-08-04T01:45:59.581Z,25.80
2022-08-04T01:48:27.547Z,25.80
2022-08-04T01:50:58.628Z,25.80
2022-08-04T01:53:35.039Z,25.80
2022-08-04T01:56:04.218Z,25.70
2022-08-04T01:58:33.431Z,25.70
2022-08-04T02:01:08.222Z,25.70
2022-08-04T02:04:21.359Z,25.60
2022-08-04T02:06:49.449Z,25.60
2022-08-04T02:09:29.382Z,25.60
2022-08-04T02:12:16.244Z,25.60
2022-08-04T02:14:56.734Z,25.50
2022-08-04T02:17:30.403Z,25.50
2022-08-04T02:20:12.290Z,25.50
2022-08-04T02:22:58.537Z,25.50
2022-08-04T02:25:27.888Z,25.40
2022-08-04T02:28:22.340Z,25.40
2022-08-04T02:31:02.999Z,25.40
2022-08-04T02:33:43.185Z,25.30
2022-08-04T02:36:16.734Z,25.30
2022-08-04T02:38:56.677Z,25.30
2022-08-04T02:41:26.095Z,25.30
2022-08-04T02:43:57.040Z,25.30
2022-08-04T02:46:24.918Z,25.20
2022-08-04T02:48:53.550Z,25.20
2022-08-04T02:51:28.004Z,25.20
2022-08-04T02:53:56.923Z,25.20
2022-08-04T02:56:25.429Z,25.20
2022-08-04T02:58:59.336Z,25.20
2022-08-04T03:01:27.004Z,25.20
2022-08-04T03:04:24.547Z,25.10
2022-08-04T03:07:22.593Z,25.10
2022-08-04T03:10:14.100Z,25.10
2022-08-04T03:13:19.644Z,25.00
2022-08-04T03:16:09.648Z,25.00
2022-08-04T03:19:25.561Z,25.00
2022-08-04T03:22:14.218Z,25.00
2022-08-04T03:24:43.973Z,25.00
2022-08-04T03:27:28.709Z,24.90
2022-08-04T03:30:16.436Z,24.90
2022-08-04T03:32:49.684Z,24.80
2022-08-04T03:35:23.263Z,24.80
2022-08-04T03:38:12.200Z,24.80
2022-08-04T03:40:58.647Z,24.80
2022-08-04T03:43:57.954Z,24.70
2022-08-04T03:46:41.390Z,24.70
2022-08-04T03:49:41.464Z,24.60
2022-08-04T03:52:55.427Z,24.60
2022-08-04T03:55:59.978Z,24.60
2022-08-04T03:58:30.674Z,24.60
2022-08-04T04:01:07.308Z,24.60
2022-08-04T04:04:09.658Z,24.60
2022-08-04T04:07:01.309Z,24.60
2022-08-04T04:10:00.903Z,24.60
2022-08-04T04:12:48.009Z,24.50
2022-08-04T04:15:30.165Z,24.50
2022-08-04T04:18:34.658Z,24.50
2022-08-04T04:21:21.658Z,24.50
2022-08-04T04:24:02.643Z,24.50
2022-08-04T04:26:45.030Z,24.40
2022-08-04T04:29:36.845Z,24.40
2022-08-04T04:32:26.724Z,24.30
2022-08-04T04:35:08.753Z,24.20
2022-08-04T04:37:56.999Z,24.20
2022-08-04T04:40:32.720Z,24.30
2022-08-04T04:43:51.543Z,24.30
2022-08-04T04:46:32.511Z,24.30
2022-08-04T04:49:24.080Z,24.30
2022-08-04T04:51:50.918Z,24.30
2022-08-04T04:54:35.670Z,24.30
2022-08-04T04:57:18.025Z,24.30
2022-08-04T05:00:02.279Z,24.30
2022-08-04T05:02:49.359Z,24.30
2022-08-04T05:05:50.546Z,24.30
2022-08-04T05:08:54.172Z,24.40
2022-08-04T05:11:43.299Z,24.40
2022-08-04T05:14:38.768Z,24.40
2022-08-04T05:17:23.988Z,24.50
2022-08-04T05:20:16.662Z,24.60
2022-08-04T05:23:01.174Z,24.70
2022-08-04T05:26:02.148Z,24.70
2022-08-04T05:28:36.019Z,24.80
2022-08-04T05:31:05.475Z,24.90
2022-08-04T05:33:40.857Z,24.90
2022-08-04T05:36:21.098Z,24.90
2022-08-04T05:38:55.661Z,25.00
2022-08-04T05:41:23.175Z,25.00
2022-08-04T05:44:00.862Z,25.10
2022-08-04T05:46:29.243Z,25.20
2022-08-04T05:48:56.284Z,25.30
2022-08-04T05:51:24.468Z,25.40
2022-08-04T05:53:53.218Z,25.40
2022-08-04T05:56:20.491Z,25.50
2022-08-04T06:01:17.053Z,25.70
2022-08-04T06:03:46.232Z,25.80
2022-08-04T06:06:15.263Z,26.00
2022-08-04T06:08:42.121Z,26.00
2022-08-04T06:11:11.976Z,26.10
2022-08-04T06:13:51.852Z,26.20
2022-08-04T06:16:30.166Z,26.20
2022-08-04T06:19:58.985Z,26.30
2022-08-04T06:21:51.138Z,26.40
2022-08-04T06:24:22.586Z,26.50
2022-08-04T06:26:51.634Z,26.70
2022-08-04T06:29:41.342Z,26.70
2022-08-04T06:32:34.788Z,26.80
2022-08-04T06:35:06.871Z,26.90
2022-08-04T06:37:42.266Z,27.20
2022-08-04T06:40:31.735Z,27.30
2022-08-04T06:43:09.656Z,27.50
2022-08-04T06:45:39.995Z,27.60
2022-08-04T06:48:08.238Z,27.70
2022-08-04T06:51:26.829Z,27.90
2022-08-04T06:53:27.119Z,27.90
2022-08-04T06:55:55.070Z,28.10
2022-08-04T06:58:23.396Z,28.20
2022-08-04T07:00:52.005Z,28.30
2022-08-04T07:03:19.913Z,28.40
2022-08-04T07:05:51.463Z,28.50
2022-08-04T07:08:19.252Z,28.60
2022-08-04T07:10:46.671Z,28.70
2022-08-04T07:13:14.169Z,28.80
2022-08-04T07:15:45.985Z,28.90
2022-08-04T07:18:12.851Z,29.00
2022-08-04T07:20:44.185Z,29.20
2022-08-04T07:23:14.196Z,29.30
2022-08-04T07:26:00.000Z,29.40
2022-08-04T07:28:30.523Z,29.40
2022-08-04T07:30:58.328Z,29.50
2022-08-04T07:33:26.067Z,29.60
2022-08-04T07:36:08.961Z,29.70
2022-08-04T07:38:46.483Z,29.90
2022-08-04T07:41:38.341Z,30.00
2022-08-04T07:44:05.472Z,30.20
2022-08-04T07:46:32.478Z,30.30
2022-08-04T07:49:01.028Z,30.50
2022-08-04T07:51:29.079Z,30.60
2022-08-04T07:53:57.230Z,30.70
2022-08-04T07:56:25.578Z,30.80
2022-08-04T07:58:52.427Z,30.90
2022-08-04T08:01:20.094Z,31.00
2022-08-04T08:03:48.064Z,31.10
2022-08-04T08:06:17.631Z,31.40
2022-08-04T08:09:12.903Z,31.50
2022-08-04T08:12:36.764Z,31.70
2022-08-04T08:14:30.845Z,31.90
2022-08-04T08:17:02.896Z,32.10
2022-08-04T08:19:30.850Z,32.30
2022-08-04T08:21:59.420Z,32.50
2022-08-04T08:24:28.283Z,32.70
2022-08-04T08:26:56.876Z,32.80
2022-08-04T08:29:24.590Z,32.90
2022-08-04T08:31:57.492Z,33.20
2022-08-04T08:34:28.066Z,33.30
2022-08-04T08:37:04.762Z,33.50
2022-08-04T08:39:42.915Z,33.60
2022-08-04T08:42:50.417Z,33.80
2022-08-04T08:45:59.176Z,33.90
2022-08-04T08:49:02.181Z,34.00
2022-08-04T08:51:55.382Z,34.20
2022-08-04T08:54:46.594Z,34.30
2022-08-04T08:57:25.151Z,34.50
2022-08-04T09:00:31.594Z,34.60
2022-08-04T09:03:51.741Z,34.80
2022-08-04T09:07:09.738Z,35.00
2022-08-04T09:10:02.518Z,35.20
2022-08-04T09:12:56.457Z,35.30
2022-08-04T09:15:45.064Z,35.50
2022-08-04T09:18:20.188Z,35.60
2022-08-04T09:21:25.910Z,35.70
2022-08-04T09:24:00.595Z,35.90
2022-08-04T09:26:49.767Z,36.00
2022-08-04T09:30:02.004Z,36.10
2022-08-04T09:32:41.766Z,36.20
2022-08-04T09:35:39.289Z,36.20
2022-08-04T09:38:36.289Z,36.20
2022-08-04T09:41:48.453Z,36.20
2022-08-04T09:44:52.267Z,36.20
2022-08-04T09:47:16.437Z,36.20
2022-08-04T09:49:53.481Z,36.30
2022-08-04T09:52:39.754Z,36.30
2022-08-04T09:55:21.035Z,36.50
2022-08-04T09:58:07.065Z,36.60
2022-08-04T10:00:43.952Z,36.70
2022-08-04T10:03:19.694Z,36.80
2022-08-04T10:06:08.603Z,36.70
2022-08-04T10:08:57.449Z,36.70
2022-08-04T10:11:56.340Z,36.70
2022-08-04T10:14:32.772Z,36.70
2022-08-04T10:17:34.811Z,36.70
2022-08-04T10:20:09.872Z,36.60
2022-08-04T10:23:09.359Z,36.60
2022-08-04T10:26:08.494Z,36.50
2022-08-04T10:28:46.477Z,36.50
2022-08-04T10:31:20.890Z,36.50
2022-08-04T10:33:57.558Z,36.40
2022-08-04T10:36:44.597Z,36.50
2022-08-04T10:39:43.039Z,36.50
2022-08-04T10:42:27.447Z,36.50
2022-08-04T10:45:24.107Z,36.60
2022-08-04T10:48:36.817Z,36.60
2022-08-04T10:51:26.173Z,36.50
2022-08-04T10:54:03.019Z,36.50
2022-08-04T10:56:43.047Z,36.50
2022-08-04T10:59:34.942Z,36.50
2022-08-04T11:02:30.269Z,36.40
2022-08-04T11:05:14.749Z,36.40
2022-08-04T11:07:45.675Z,36.50
2022-08-04T11:10:13.618Z,36.50
2022-08-04T11:12:43.713Z,36.40
2022-08-04T11:15:21.812Z,36.40
2022-08-04T11:17:56.688Z,36.50
2022-08-04T11:20:35.594Z,36.50
2022-08-04T11:23:11.914Z,36.50
2022-08-04T11:26:02.069Z,36.50
2022-08-04T11:28:58.502Z,36.40
2022-08-04T11:31:39.431Z,36.50
2022-08-04T11:34:18.551Z,36.50
2022-08-04T11:37:19.203Z,36.60
2022-08-04T11:39:50.640Z,36.60
2022-08-04T11:42:27.674Z,36.60
2022-08-04T11:45:05.555Z,36.50
2022-08-04T11:47:58.553Z,36.50
2022-08-04T11:50:41.642Z,36.50
2022-08-04T11:53:10.853Z,36.40
2022-08-04T11:56:07.749Z,36.40
2022-08-04T11:58:26.368Z,36.40
2022-08-04T12:01:21.721Z,36.30
2022-08-04T12:04:50.186Z,36.30
2022-08-04T12:07:45.178Z,36.30
2022-08-04T12:10:39.094Z,36.30
2022-08-04T12:13:09.230Z,36.30
2022-08-04T12:15:59.474Z,36.20
2022-08-04T12:18:34.591Z,36.20
2022-08-04T12:21:05.115Z,36.10
2022-08-04T12:23:40.332Z,36.00
2022-08-04T12:26:13.235Z,35.90
2022-08-04T12:31:42.840Z,35.80
2022-08-04T12:34:17.360Z,35.70
2022-08-04T12:36:58.937Z,35.70
2022-08-04T12:39:27.510Z,35.70
2022-08-04T12:42:21.339Z,35.70
2022-08-04T12:44:54.189Z,35.60
2022-08-04T12:47:29.044Z,35.60
2022-08-04T12:50:02.701Z,35.60
2022-08-04T12:53:05.174Z,35.50
2022-08-04T12:55:35.373Z,35.50
2022-08-04T12:58:04.205Z,35.50
2022-08-04T13:00:41.146Z,35.40
2022-08-04T13:03:14.966Z,35.30
2022-08-04T13:05:43.796Z,35.30
2022-08-04T13:08:13.215Z,35.20
2022-08-04T13:10:45.497Z,35.10
2022-08-04T13:13:16.727Z,35.10
2022-08-04T13:15:47.420Z,35.00
2022-08-04T13:18:29.314Z,35.00
2022-08-04T13:21:20.413Z,34.90
2022-08-04T13:24:19.209Z,34.90
2022-08-04T13:27:03.545Z,34.80
2022-08-04T13:29:59.555Z,34.80
2022-08-04T13:32:29.683Z,34.70
2022-08-04T13:35:00.109Z,34.70
2022-08-04T13:37:33.475Z,34.70
2022-08-04T13:40:02.183Z,34.80
2022-08-04T13:42:30.130Z,34.80
2022-08-04T13:44:59.688Z,34.70
2022-08-04T13:47:34.248Z,34.70
2022-08-04T13:50:11.139Z,34.70
2022-08-04T13:52:39.322Z,34.70
2022-08-04T13:55:06.916Z,34.70
2022-08-04T13:57:43.603Z,34.70
2022-08-04T14:00:12.108Z,34.70
2022-08-04T14:02:49.012Z,34.70
2022-08-04T14:05:27.497Z,34.60
2022-08-04T14:08:07.726Z,34.70
2022-08-04T14:10:36.403Z,34.60
2022-08-04T14:13:05.534Z,34.70
2022-08-04T14:16:01.408Z,34.60
2022-08-04T14:18:33.430Z,34.70
2022-08-04T14:21:01.239Z,34.60
2022-08-04T14:23:31.872Z,34.60
2022-08-04T14:26:00.593Z,34.60
2022-08-04T14:28:41.412Z,34.50
2022-08-04T14:31:21.326Z,34.50
2022-08-04T14:34:02.188Z,34.50
2022-08-04T14:37:13.265Z,34.50
2022-08-04T14:39:40.324Z,34.50
2022-08-04T14:42:07.697Z,34.50
2022-08-04T14:44:57.611Z,34.50
2022-08-04T14:47:52.617Z,34.40
2022-08-04T14:50:20.752Z,34.40
2022-08-04T14:52:47.692Z,34.30
2022-08-04T14:55:23.508Z,34.30
2022-08-04T14:58:35.156Z,34.20
2022-08-04T15:00:38.130Z,34.30
2022-08-04T15:03:10.269Z,34.20
2022-08-04T15:05:55.093Z,34.20
2022-08-04T15:08:29.181Z,34.20
2022-08-04T15:11:03.385Z,34.30
2022-08-04T15:13:33.667Z,34.20
2022-08-04T15:16:06.614Z,34.30
2022-08-04T15:18:37.780Z,34.20
2022-08-04T15:21:06.881Z,34.20
2022-08-04T15:23:38.872Z,34.20
2022-08-04T15:26:10.475Z,34.20
2022-08-04T15:28:39.936Z,34.20
2022-08-04T15:32:01.765Z,34.20
2022-08-04T15:33:57.129Z,34.20
2022-08-04T15:36:57.699Z,34.20
2022-08-04T15:39:46.473Z,34.10
2022-08-04T15:42:30.346Z,34.10
2022-08-04T15:45:21.565Z,34.00
2022-08-04T15:48:10.909Z,34.00
2022-08-04T15:51:00.326Z,34.00
2022-08-04T15:54:02.841Z,33.90
2022-08-04T15:56:26.530Z,33.90
2022-08-04T15:58:55.235Z,33.80
2022-08-04T16:01:22.760Z,33.70
2022-08-04T16:03:59.639Z,33.70
2022-08-04T16:06:29.546Z,33.70
2022-08-04T16:09:01.956Z,33.60
2022-08-04T16:11:37.286Z,33.50
2022-08-04T16:14:04.336Z,33.40
2022-08-04T16:16:37.175Z,33.40
2022-08-04T16:19:16.627Z,33.30
2022-08-04T16:21:50.492Z,33.20
2022-08-04T16:24:31.003Z,33.00
2022-08-04T16:27:00.953Z,32.90
2022-08-04T16:29:36.287Z,32.80
2022-08-04T16:32:06.562Z,32.70
2022-08-04T16:34:48.656Z,32.60
2022-08-04T16:37:19.305Z,32.60
2022-08-04T16:39:50.786Z,32.40
2022-08-04T16:42:30.762Z,32.40
2022-08-04T16:45:01.021Z,32.30
2022-08-04T16:47:53.908Z,32.20
2022-08-04T16:50:22.409Z,32.20
2022-08-04T16:52:51.283Z,32.10
2022-08-04T16:55:23.890Z,32.10
2022-08-04T16:57:55.979Z,32.00
2022-08-04T17:00:36.343Z,32.00
2022-08-04T17:03:07.990Z,32.00
2022-08-04T17:05:38.661Z,32.00
2022-08-04T17:10:56.051Z,31.80
2022-08-04T17:14:02.089Z,31.70
2022-08-04T17:16:21.052Z,31.70
2022-08-04T17:18:50.830Z,31.60
2022-08-04T17:21:24.434Z,31.60
2022-08-04T17:24:15.803Z,31.50
2022-08-04T17:26:41.522Z,31.50
2022-08-04T17:29:12.122Z,31.50
2022-08-04T17:31:40.705Z,31.50
2022-08-04T17:34:15.644Z,31.40
2022-08-04T17:36:44.038Z,31.40
2022-08-04T17:39:16.981Z,31.40
2022-08-04T17:41:49.031Z,31.40
2022-08-04T17:44:17.540Z,31.40
2022-08-04T17:46:48.605Z,31.40
2022-08-04T17:49:18.605Z,31.40
2022-08-04T17:52:06.017Z,31.30
2022-08-04T17:54:40.342Z,31.30
2022-08-04T17:57:20.115Z,31.30
2022-08-04T17:59:59.254Z,31.30
2022-08-04T18:02:34.115Z,31.20
2022-08-04T18:05:10.002Z,31.20
2022-08-04T18:08:35.401Z,31.20
2022-08-04T18:10:56.954Z,31.20
2022-08-04T18:13:28.354Z,31.20
2022-08-04T18:16:08.049Z,31.20
2022-08-04T18:18:41.584Z,31.20
2022-08-04T18:21:15.925Z,31.20
2022-08-04T18:26:32.122Z,31.20
2022-08-04T18:29:00.701Z,31.20
2022-08-04T18:31:31.773Z,31.20
2022-08-04T18:34:02.976Z,31.10
2022-08-04T18:36:32.615Z,31.20
2022-08-04T18:39:12.656Z,31.20
2022-08-04T18:44:31.498Z,31.10
2022-08-04T18:47:19.045Z,31.10
2022-08-04T18:50:40.215Z,31.10
2022-08-04T18:52:33.264Z,31.10
2022-08-04T18:55:01.914Z,31.10
2022-08-04T18:57:59.766Z,31.10
2022-08-04T19:00:19.772Z,31.10
2022-08-04T19:02:47.472Z,31.00
2022-08-04T19:05:17.518Z,31.00
2022-08-04T19:08:11.639Z,31.00
2022-08-04T19:10:31.825Z,31.00
2022-08-04T19:12:59.566Z,30.90
2022-08-04T19:18:18.673Z,30.90
2022-08-04T19:20:46.943Z,30.90
2022-08-04T19:24:28.421Z,30.90
2022-08-04T19:26:06.924Z,30.90
2022-08-04T19:28:38.849Z,30.80
2022-08-04T19:31:09.417Z,30.80
2022-08-04T19:33:58.030Z,30.80
2022-08-04T19:36:29.712Z,30.80
2022-08-04T19:38:59.395Z,30.70
2022-08-04T19:41:29.556Z,30.70
2022-08-04T19:43:58.039Z,30.70
2022-08-04T19:46:28.637Z,30.70
2022-08-04T19:49:00.456Z,30.60
2022-08-04T19:51:29.143Z,30.60
2022-08-04T19:54:04.040Z,30.50
2022-08-04T19:56:40.329Z,30.50
2022-08-04T19:59:11.349Z,30.40
2022-08-04T20:01:45.209Z,30.40
2022-08-04T20:04:12.901Z,30.40
2022-08-04T20:06:39.739Z,30.30
2022-08-04T20:09:25.665Z,30.30
2022-08-04T20:11:55.154Z,30.30
2022-08-04T20:14:32.639Z,30.20
2022-08-04T20:17:02.683Z,30.20
2022-08-04T20:19:30.587Z,30.10
2022-08-04T20:21:58.144Z,30.10
2022-08-04T20:24:41.459Z,30.10
2022-08-04T20:27:15.361Z,30.00
2022-08-04T20:29:46.081Z,30.00
2022-08-04T20:32:21.919Z,29.90
2022-08-04T20:34:51.561Z,29.90
2022-08-04T20:37:23.860Z,29.90
2022-08-04T20:39:59.860Z,29.90
2022-08-04T20:42:34.028Z,29.80
2022-08-04T20:45:01.525Z,29.80
2022-08-04T20:47:34.971Z,29.80
2022-08-04T20:50:05.400Z,29.70
2022-08-04T20:52:37.858Z,29.70
2022-08-04T20:55:05.599Z,29.70
2022-08-04T20:57:48.247Z,29.60
2022-08-04T21:03:05.040Z,29.50
2022-08-04T21:05:32.115Z,29.50
2022-08-04T21:07:59.097Z,29.50
2022-08-04T21:10:26.374Z,29.50
2022-08-04T21:12:54.190Z,29.40
2022-08-04T21:15:25.484Z,29.40
2022-08-04T21:17:57.805Z,29.30
2022-08-04T21:20:31.385Z,29.30
2022-08-04T21:23:02.253Z,29.30
2022-08-04T21:25:32.293Z,29.30
2022-08-04T21:28:09.383Z,29.20
2022-08-04T21:30:52.248Z,29.20
2022-08-04T21:33:20.723Z,29.10
2022-08-04T21:35:49.188Z,29.10
2022-08-04T21:38:22.476Z,29.10
2022-08-04T21:40:58.917Z,29.00
2022-08-04T21:43:42.295Z,29.00
2022-08-04T21:46:11.399Z,28.90
2022-08-04T21:48:38.951Z,28.80
2022-08-04T21:52:00.656Z,28.80
2022-08-04T21:54:15.101Z,28.80
2022-08-04T21:56:51.609Z,28.80
2022-08-04T21:59:24.086Z,28.80
2022-08-04T22:01:58.063Z,28.80
2022-08-04T22:04:27.630Z,28.80
2022-08-04T22:06:54.374Z,28.70
2022-08-04T22:09:22.337Z,28.80
2022-08-04T22:11:51.567Z,28.70
2022-08-04T22:14:27.383Z,28.70
2022-08-04T22:17:01.046Z,28.70
2022-08-04T22:19:40.657Z,28.60
2022-08-04T22:22:25.288Z,28.60
2022-08-04T22:24:58.468Z,28.60
2022-08-04T22:27:47.654Z,28.60
2022-08-04T22:30:22.937Z,28.60
2022-08-04T22:32:50.308Z,28.50
2022-08-04T22:35:35.464Z,28.50
2022-08-04T22:38:06.537Z,28.50
2022-08-04T22:40:38.330Z,28.50
2022-08-04T22:43:22.588Z,28.50
2022-08-04T22:45:52.047Z,28.40
2022-08-04T22:48:19.022Z,28.40
2022-08-04T22:50:45.941Z,28.40
2022-08-04T22:53:18.035Z,28.40
2022-08-04T22:56:07.655Z,28.30
2022-08-04T22:58:32.217Z,28.30
2022-08-04T23:00:59.043Z,28.30
2022-08-04T23:03:36.844Z,28.20
2022-08-04T23:06:10.925Z,28.20
2022-08-04T23:08:43.226Z,28.20
2022-08-04T23:11:15.246Z,28.20
2022-08-04T23:13:42.904Z,28.10
2022-08-04T23:16:10.652Z,28.20
2022-08-04T23:18:41.901Z,28.20
2022-08-04T23:21:10.328Z,28.00
2022-08-04T23:23:45.582Z,28.00
2022-08-04T23:26:27.735Z,27.90
2022-08-04T23:28:55.510Z,27.90
2022-08-04T23:31:22.522Z,27.90
2022-08-04T23:33:51.485Z,27.90
2022-08-04T23:36:26.321Z,27.80
2022-08-04T23:38:59.675Z,27.80
2022-08-04T23:41:53.524Z,27.80
2022-08-04T23:44:17.465Z,27.70
2022-08-04T23:46:51.375Z,27.70
2022-08-04T23:49:20.266Z,27.70
2022-08-04T23:51:49.690Z,27.60
2022-08-04T23:54:16.595Z,27.50
2022-08-04T23:56:52.610Z,27.60
2022-08-04T23:59:49.060Z,27.50
